Current | Forecast
Updated: 11:30 AM +09 on August 21, 2017
Observed at Chita, Russia
Temperature 55°F
Humidity 88%
Dew Point 52°F
Wind WSW at 2 mph
Pressure 29.42 in (Steady)
Conditions Light Rain Showers
Visibility 6.2 miles
UV 3 out of 16
Clouds Mostly Cloudy (BKN) : 2600 ft
Yesterday's Maximum 64°F
Yesterday's Minimum 55°F approx.
Yesterday's Heating Degree Days 5 approx.
Sunrise5:21 AM +08
Sunset7:38 PM +08
Moon Rise4:20 AM +08
Moon Set7:24 PM +08
Moon PhaseMoon Phase
Waning Crescent
Raw METARMETAR UIAA 210230Z 24001MPS 9999 -SHRA BKN026CB 13/11 Q0996 R29/290350 NOSIG RMK QFE689/0919


Monday
. High: 53° F.
Tuesday
. High: 51° F.
Wednesday
. High: 42° F.
Thursday
. High: 46° F.
Friday
. High: 50° F.
Saturday
. High: 51° F.
Sunday
. High: 55° F.
Monday
. High: 64° F.

Units: English | Metric

Find the Weather for any City, State or Zipcode, or Country:

U.S. State List | Severe Weather | Tropical Storms | Ski Conditions
United States | Canada | Central America | South America | Asia | Europe | Australia | Africa | Islands

Weather Underground

© Copyright 2017
The Weather Company, LLC